Time;durP1;ratioP1;P1;durP2;ratioP2;P2;SDS_P1;SDS_P2;PMS_P1;PMS_P2;Temp;Humidity;BMP_temperature;BMP_pressure;BME280_temperature;BME280_humidity;BME280_pressure;Samples;Min_cycle;Max_cycle;Signal;HPM_P1;HPM_P2
2023/06/13 00:03:14;;;;;;;;;;;23.80;49.40;;;;;;8446010;28;19928;-71
2023/06/13 00:07:15;;;;;;;;;;;23.70;49.30;;;;;;8440749;28;19950;-71
2023/06/13 00:11:17;;;;;;;;;;;23.60;49.30;;;;;;8457881;27;20348;-71
2023/06/13 00:15:19;;;;;;;;;;;23.50;49.20;;;;;;8447852;27;20402;-71
2023/06/13 00:19:21;;;;;;;;;;;23.40;49.20;;;;;;8451937;27;20040;-71
2023/06/13 00:23:22;;;;;;;;;;;23.40;49.20;;;;;;8458408;27;20064;-71
2023/06/13 00:27:24;;;;;;;;;;;23.30;49.20;;;;;;8432246;27;19925;-71
2023/06/13 00:31:28;;;;;;;;;;;23.20;49.10;;;;;;8397500;28;19923;-72
2023/06/13 00:35:31;;;;;;;;;;;23.20;49.10;;;;;;8389681;28;19937;-71
2023/06/13 00:39:32;;;;;;;;;;;23.10;49.10;;;;;;8388959;28;19932;-71
2023/06/13 00:43:34;;;;;;;;;;;23.00;49.00;;;;;;8392311;28;19925;-72
2023/06/13 00:47:36;;;;;;;;;;;23.00;49.00;;;;;;8394176;28;19947;-71
2023/06/13 00:51:41;;;;;;;;;;;22.90;49.00;;;;;;8393457;28;19977;-71
2023/06/13 00:55:43;;;;;;;;;;;22.90;49.00;;;;;;8362653;28;19925;-72
2023/06/13 00:59:45;;;;;;;;;;;22.80;49.00;;;;;;8384717;28;19924;-71
2023/06/13 01:03:47;;;;;;;;;;;22.70;48.90;;;;;;8379532;28;20315;-71
2023/06/13 01:07:49;;;;;;;;;;;22.70;49.00;;;;;;8385202;28;20398;-71
2023/06/13 01:12:01;;;;;;;;;;;22.70;49.00;;;;;;8388221;28;19931;-71
2023/06/13 01:16:11;;;;;;;;;;;22.60;49.00;;;;;;8390071;28;19929;-71
2023/06/13 01:20:16;;;;;;;;;;;22.50;48.90;;;;;;8404924;28;20331;-71
2023/06/13 01:24:20;;;;;;;;;;;22.40;48.80;;;;;;8391774;28;19924;-71
2023/06/13 01:28:23;;;;;;;;;;;22.30;48.90;;;;;;8409476;27;19924;-71
2023/06/13 01:32:25;;;;;;;;;;;22.30;48.90;;;;;;8448872;27;20279;-71
2023/06/13 01:36:28;;;;;;;;;;;22.20;48.90;;;;;;8459826;27;19924;-71
2023/06/13 01:40:29;;;;;;;;;;;22.10;48.90;;;;;;8441546;27;19931;-71
2023/06/13 01:44:31;;;;;;;;;;;22.10;48.80;;;;;;8454764;27;19943;-71
2023/06/13 01:48:41;;;;;;;;;;;22.00;48.80;;;;;;8461030;27;19928;-71
2023/06/13 01:52:50;;;;;;;;;;;21.90;48.70;;;;;;8457508;27;19970;-71
2023/06/13 01:56:55;;;;;;;;;;;21.80;48.60;;;;;;8459215;27;20033;-70
2023/06/13 02:00:57;;;;;;;;;;;21.70;48.70;;;;;;8455295;27;19977;-71
2023/06/13 02:04:59;;;;;;;;;;;21.60;48.60;;;;;;8448485;27;19985;-71
2023/06/13 02:09:04;;;;;;;;;;;21.60;48.60;;;;;;8451153;27;20386;-71
2023/06/13 02:13:06;;;;;;;;;;;21.50;48.60;;;;;;8436916;27;19924;-71
2023/06/13 02:17:08;;;;;;;;;;;21.40;48.70;;;;;;8440061;27;19924;-72
2023/06/13 02:21:10;;;;;;;;;;;21.30;48.70;;;;;;8443440;27;19931;-71
2023/06/13 02:25:12;;;;;;;;;;;21.30;48.70;;;;;;8446790;27;19956;-71
2023/06/13 02:29:14;;;;;;;;;;;21.20;48.70;;;;;;8433628;27;19934;-71
2023/06/13 02:38:36;;;;;;;;;;;21.00;48.80;;;;;;8458090;27;19980;-71
2023/06/13 02:42:38;;;;;;;;;;;20.90;48.70;;;;;;8461812;27;19923;-71
2023/06/13 02:46:39;;;;;;;;;;;20.80;48.70;;;;;;8454080;27;19926;-70
2023/06/13 02:50:41;;;;;;;;;;;20.80;48.70;;;;;;8454132;27;19923;-71
2023/06/13 02:54:43;;;;;;;;;;;20.70;49.40;;;;;;8449378;27;19927;-71
2023/06/13 02:58:45;;;;;;;;;;;20.60;48.80;;;;;;8461994;27;19949;-71
2023/06/13 03:02:46;;;;;;;;;;;20.60;48.90;;;;;;8456041;27;19928;-71
2023/06/13 03:06:49;;;;;;;;;;;20.50;48.90;;;;;;8446176;27;20358;-71
2023/06/13 03:10:51;;;;;;;;;;;20.50;49.00;;;;;;8451556;27;19935;-71
2023/06/13 03:14:53;;;;;;;;;;;20.40;48.80;;;;;;8430785;27;19924;-71
2023/06/13 03:18:55;;;;;;;;;;;20.40;49.10;;;;;;8451465;27;19935;-71
2023/06/13 03:22:57;;;;;;;;;;;20.40;49.20;;;;;;8446437;27;19924;-71
2023/06/13 03:26:59;;;;;;;;;;;20.30;49.10;;;;;;8443492;27;20291;-70
2023/06/13 03:31:00;;;;;;;;;;;20.30;49.20;;;;;;8443099;27;19973;-72
2023/06/13 03:35:02;;;;;;;;;;;20.30;49.20;;;;;;8457809;27;19975;-71
2023/06/13 03:39:04;;;;;;;;;;;20.30;49.40;;;;;;8457558;27;20370;-72
2023/06/13 03:43:06;;;;;;;;;;;20.30;49.40;;;;;;8462734;27;19932;-71
2023/06/13 03:47:08;;;;;;;;;;;20.30;49.30;;;;;;8466109;27;19923;-70
2023/06/13 03:51:09;;;;;;;;;;;20.30;49.50;;;;;;8466171;28;19968;-72
2023/06/13 03:55:11;;;;;;;;;;;20.20;49.30;;;;;;8461681;28;19948;-70
2023/06/13 03:59:13;;;;;;;;;;;20.30;49.60;;;;;;8467910;28;19923;-71
2023/06/13 04:03:15;;;;;;;;;;;20.30;49.70;;;;;;8447661;28;19928;-71
2023/06/13 04:07:16;;;;;;;;;;;20.30;49.80;;;;;;8453464;28;19967;-71
2023/06/13 04:11:18;;;;;;;;;;;20.30;49.70;;;;;;8463394;27;19932;-71
2023/06/13 04:15:20;;;;;;;;;;;20.30;49.80;;;;;;8442827;28;22601;-71
2023/06/13 04:19:23;;;;;;;;;;;20.30;50.20;;;;;;8460867;28;20393;-71
2023/06/13 04:23:25;;;;;;;;;;;20.30;50.20;;;;;;8450863;28;19930;-71
2023/06/13 04:27:28;;;;;;;;;;;20.40;50.30;;;;;;8416997;28;19928;-71
2023/06/13 04:31:34;;;;;;;;;;;20.40;50.30;;;;;;8447433;28;19966;-71
2023/06/13 04:35:37;;;;;;;;;;;20.40;50.30;;;;;;8451097;28;20436;-71
2023/06/13 04:39:39;;;;;;;;;;;20.50;50.80;;;;;;8451597;28;19932;-71
2023/06/13 04:43:41;;;;;;;;;;;20.60;50.80;;;;;;8456237;28;20327;-71
2023/06/13 04:47:45;;;;;;;;;;;20.60;50.70;;;;;;8451671;28;20342;-71
2023/06/13 04:51:58;;;;;;;;;;;20.60;50.80;;;;;;8468379;27;19928;-71
2023/06/13 04:56:00;;;;;;;;;;;20.70;51.10;;;;;;8459927;28;20420;-72
2023/06/13 05:00:06;;;;;;;;;;;20.70;51.20;;;;;;8461294;27;19931;-72
2023/06/13 05:04:08;;;;;;;;;;;20.70;51.30;;;;;;8446129;27;20002;-72
2023/06/13 05:08:13;;;;;;;;;;;20.80;51.50;;;;;;8467375;27;19955;-71
2023/06/13 05:12:15;;;;;;;;;;;20.90;51.50;;;;;;8461179;27;19993;-71
2023/06/13 05:16:17;;;;;;;;;;;20.90;51.50;;;;;;8452111;27;19928;-71
2023/06/13 05:20:22;;;;;;;;;;;21.00;51.80;;;;;;8447197;27;20247;-71
2023/06/13 05:24:24;;;;;;;;;;;21.00;52.00;;;;;;8468832;27;20041;-71
2023/06/13 05:28:25;;;;;;;;;;;21.10;52.20;;;;;;8449272;27;19924;-72
2023/06/13 05:32:27;;;;;;;;;;;21.10;52.10;;;;;;8452761;27;19927;-71
2023/06/13 05:36:29;;;;;;;;;;;21.20;52.30;;;;;;8450378;27;19932;-71
2023/06/13 05:40:30;;;;;;;;;;;21.30;52.50;;;;;;8461684;27;20299;-71
2023/06/13 05:44:32;;;;;;;;;;;21.40;52.70;;;;;;8431583;27;19931;-72
2023/06/13 05:48:34;;;;;;;;;;;21.50;52.80;;;;;;8458664;27;19923;-71
2023/06/13 05:52:35;;;;;;;;;;;21.60;53.10;;;;;;8467528;27;20873;-71
2023/06/13 05:56:37;;;;;;;;;;;21.70;53.10;;;;;;8462756;27;20364;-72
2023/06/13 06:00:40;;;;;;;;;;;21.80;53.50;;;;;;8451447;27;19958;-72
2023/06/13 06:04:41;;;;;;;;;;;21.80;53.40;;;;;;8462700;27;20412;-71
2023/06/13 06:08:43;;;;;;;;;;;21.90;53.80;;;;;;8452979;27;19945;-71
2023/06/13 06:12:44;;;;;;;;;;;22.00;53.90;;;;;;8448788;27;19923;-71
2023/06/13 06:16:46;;;;;;;;;;;22.10;53.90;;;;;;8460225;27;20345;-73
2023/06/13 06:20:48;;;;;;;;;;;22.20;54.10;;;;;;8468160;27;19923;-72
2023/06/13 06:24:50;;;;;;;;;;;22.30;54.10;;;;;;8458708;27;19980;-71
2023/06/13 06:28:52;;;;;;;;;;;22.40;54.40;;;;;;8458380;28;19934;-71
2023/06/13 06:32:54;;;;;;;;;;;22.50;54.70;;;;;;8458089;28;19938;-71
2023/06/13 06:36:56;;;;;;;;;;;22.60;55.00;;;;;;8462646;28;19966;-72
2023/06/13 06:40:57;;;;;;;;;;;22.70;54.90;;;;;;8456481;28;19935;-72
2023/06/13 06:44:59;;;;;;;;;;;22.80;55.10;;;;;;8456162;28;19924;-72
2023/06/13 06:49:01;;;;;;;;;;;22.90;55.20;;;;;;8460701;28;19924;-72
2023/06/13 06:53:03;;;;;;;;;;;23.10;55.60;;;;;;8461359;28;19928;-71
2023/06/13 06:57:05;;;;;;;;;;;23.20;55.60;;;;;;8440948;28;19924;-71
2023/06/13 07:01:07;;;;;;;;;;;23.30;55.50;;;;;;8457515;28;20294;-71
2023/06/13 07:05:09;;;;;;;;;;;23.40;55.80;;;;;;8446991;28;20287;-71
2023/06/13 07:09:10;;;;;;;;;;;23.50;56.10;;;;;;8453283;27;20003;-71
2023/06/13 07:13:12;;;;;;;;;;;23.60;56.30;;;;;;8474080;27;19924;-71
2023/06/13 07:17:13;;;;;;;;;;;23.70;56.30;;;;;;8466246;27;19923;-71
2023/06/13 07:21:15;;;;;;;;;;;23.80;56.20;;;;;;8464073;27;19924;-73
2023/06/13 07:25:17;;;;;;;;;;;23.90;56.90;;;;;;8467825;27;19930;-72
2023/06/13 07:29:18;;;;;;;;;;;24.00;56.20;;;;;;8447120;28;21687;-72
2023/06/13 07:33:20;;;;;;;;;;;24.00;56.30;;;;;;8433386;28;20186;-71
2023/06/13 07:37:22;;;;;;;;;;;24.10;56.40;;;;;;8455632;28;19928;-71
2023/06/13 07:41:24;;;;;;;;;;;24.20;56.60;;;;;;8456803;28;19925;-72
2023/06/13 07:45:25;;;;;;;;;;;24.30;56.50;;;;;;8457712;28;19931;-73
2023/06/13 07:49:29;;;;;;;;;;;24.50;56.60;;;;;;8444527;28;19924;-71
2023/06/13 07:53:31;;;;;;;;;;;24.50;57.10;;;;;;8454288;28;19932;-72
2023/06/13 07:57:32;;;;;;;;;;;24.60;56.70;;;;;;8461228;28;20371;-71
2023/06/13 08:01:54;;;;;;;;;;;24.80;56.70;;;;;;8450541;28;20391;-71
2023/06/13 08:05:56;;;;;;;;;;;24.80;56.50;;;;;;8453256;28;20306;-72
2023/06/13 08:09:58;;;;;;;;;;;24.90;56.70;;;;;;8453817;28;19924;-71
2023/06/13 08:14:00;;;;;;;;;;;25.00;56.60;;;;;;8458512;28;20298;-71
2023/06/13 08:18:01;;;;;;;;;;;25.10;56.60;;;;;;8462221;28;19923;-71
2023/06/13 08:22:03;;;;;;;;;;;25.20;56.40;;;;;;8461010;28;19924;-72
2023/06/13 08:26:05;;;;;;;;;;;25.30;56.40;;;;;;8472656;27;19935;-72
2023/06/13 08:30:07;;;;;;;;;;;25.30;56.00;;;;;;8460117;28;19924;-72
2023/06/13 08:34:09;;;;;;;;;;;25.40;56.10;;;;;;8457988;28;20010;-71
2023/06/13 08:38:13;;;;;;;;;;;25.50;56.00;;;;;;8451462;27;19927;-72
2023/06/13 08:42:15;;;;;;;;;;;25.60;56.00;;;;;;8464990;28;19924;-72
2023/06/13 08:46:16;;;;;;;;;;;25.60;55.80;;;;;;8466040;28;19958;-72
2023/06/13 08:50:24;;;;;;;;;;;25.70;55.80;;;;;;8471857;27;19928;-71
2023/06/13 08:54:29;;;;;;;;;;;25.80;55.80;;;;;;8463965;27;19928;-70
2023/06/13 08:58:33;;;;;;;;;;;25.80;55.80;;;;;;8480889;27;19984;-70
2023/06/13 09:02:36;;;;;;;;;;;25.90;55.50;;;;;;8475829;27;19928;-71
2023/06/13 09:06:37;;;;;;;;;;;25.90;55.30;;;;;;8455292;28;19924;-71
2023/06/13 09:10:40;;;;;;;;;;;25.90;55.00;;;;;;8440172;28;20071;-72
2023/06/13 09:14:42;;;;;;;;;;;26.00;55.10;;;;;;8432967;28;19937;-72
2023/06/13 09:18:44;;;;;;;;;;;26.00;54.70;;;;;;8443521;28;19924;-72
2023/06/13 09:22:46;;;;;;;;;;;26.10;54.70;;;;;;8444759;28;20019;-71
2023/06/13 09:26:48;;;;;;;;;;;26.10;54.60;;;;;;8437604;28;20375;-72
2023/06/13 09:30:49;;;;;;;;;;;26.10;54.70;;;;;;8444039;28;20291;-71
2023/06/13 09:34:51;;;;;;;;;;;26.20;54.60;;;;;;8444562;27;19932;-72
2023/06/13 09:38:56;;;;;;;;;;;26.20;54.60;;;;;;8422474;28;20345;-73
2023/06/13 09:43:00;;;;;;;;;;;26.30;54.70;;;;;;8442949;28;19978;-73
2023/06/13 09:47:06;;;;;;;;;;;26.30;55.00;;;;;;8440354;28;19977;-73
2023/06/13 09:51:11;;;;;;;;;;;26.50;54.90;;;;;;8423633;27;19924;-72
2023/06/13 09:55:13;;;;;;;;;;;26.60;55.10;;;;;;8440658;28;19924;-72
2023/06/13 09:59:15;;;;;;;;;;;26.60;55.00;;;;;;8417462;28;19930;-73
2023/06/13 10:03:18;;;;;;;;;;;26.60;55.10;;;;;;8431150;27;20272;-72
2023/06/13 10:07:22;;;;;;;;;;;26.60;54.90;;;;;;8433239;28;19928;-72
2023/06/13 10:11:27;;;;;;;;;;;26.60;54.90;;;;;;8441276;28;20343;-73
2023/06/13 10:15:31;;;;;;;;;;;26.70;54.90;;;;;;8439678;28;19928;-72
2023/06/13 10:19:33;;;;;;;;;;;26.70;54.90;;;;;;8440613;28;19924;-73
2023/06/13 10:23:38;;;;;;;;;;;26.70;54.70;;;;;;8426799;27;19928;-71
2023/06/13 10:27:43;;;;;;;;;;;26.70;54.50;;;;;;8439586;27;19928;-72
2023/06/13 10:31:56;;;;;;;;;;;26.70;54.10;;;;;;8442554;27;19927;-73
2023/06/13 10:36:23;;;;;;;;;;;26.70;54.20;;;;;;8445108;28;19928;-72
2023/06/13 10:40:45;;;;;;;;;;;26.70;54.30;;;;;;8448468;28;19924;-71
2023/06/13 10:44:53;;;;;;;;;;;26.80;54.40;;;;;;8460102;27;19923;-72
2023/06/13 10:48:56;;;;;;;;;;;26.90;54.20;;;;;;8452335;27;19924;-72
2023/06/13 10:52:58;;;;;;;;;;;26.90;54.00;;;;;;8458413;28;20051;-72
2023/06/13 10:57:00;;;;;;;;;;;27.00;54.00;;;;;;8458907;28;20558;-73
2023/06/13 11:01:22;;;;;;;;;;;27.00;54.10;;;;;;8437754;28;19924;-71
2023/06/13 11:05:23;;;;;;;;;;;27.10;54.10;;;;;;8436970;28;19924;-71
2023/06/13 11:09:38;;;;;;;;;;;27.20;54.00;;;;;;8457623;28;20360;-72
2023/06/13 11:13:43;;;;;;;;;;;27.20;54.00;;;;;;8453687;28;20283;-73
2023/06/13 11:18:00;;;;;;;;;;;27.20;54.20;;;;;;8438687;28;19965;-73
2023/06/13 11:22:02;;;;;;;;;;;27.30;54.10;;;;;;8458784;28;19931;-71
2023/06/13 11:26:05;;;;;;;;;;;27.30;53.80;;;;;;8454818;28;19930;-73
2023/06/13 11:30:07;;;;;;;;;;;27.30;53.90;;;;;;8468497;27;19976;-73
2023/06/13 11:34:13;;;;;;;;;;;27.30;53.50;;;;;;8457670;27;19927;-71
2023/06/13 11:38:20;;;;;;;;;;;27.30;53.30;;;;;;8454980;27;19950;-72
2023/06/13 11:42:22;;;;;;;;;;;27.30;53.40;;;;;;8454479;27;19934;-72
2023/06/13 11:46:24;;;;;;;;;;;27.40;53.30;;;;;;8458210;28;19924;-72
2023/06/13 11:50:26;;;;;;;;;;;27.40;53.10;;;;;;8457636;27;19924;-72
2023/06/13 11:54:32;;;;;;;;;;;27.50;53.40;;;;;;8462661;28;19930;-72
2023/06/13 11:58:35;;;;;;;;;;;27.50;53.40;;;;;;8458440;28;19934;-72
2023/06/13 12:02:38;;;;;;;;;;;27.60;53.60;;;;;;8441106;28;20439;-73
2023/06/13 12:06:40;;;;;;;;;;;27.60;53.50;;;;;;8442709;28;19931;-71
2023/06/13 12:10:45;;;;;;;;;;;27.70;53.60;;;;;;8459602;27;19972;-71
2023/06/13 12:14:53;;;;;;;;;;;27.70;53.20;;;;;;8470313;27;19923;-71
2023/06/13 12:18:56;;;;;;;;;;;27.70;53.30;;;;;;8465658;27;19975;-71
2023/06/13 12:22:58;;;;;;;;;;;27.70;52.80;;;;;;8478549;27;19927;-72
2023/06/13 12:27:02;;;;;;;;;;;27.70;52.50;;;;;;8460965;27;20432;-72
2023/06/13 12:31:07;;;;;;;;;;;27.70;52.60;;;;;;8456835;27;19924;-71
2023/06/13 12:35:09;;;;;;;;;;;27.70;52.20;;;;;;8462729;28;19928;-72
2023/06/13 12:39:14;;;;;;;;;;;27.80;52.70;;;;;;8447678;28;19924;-71
2023/06/13 12:43:16;;;;;;;;;;;27.80;52.40;;;;;;8460237;27;19928;-73
2023/06/13 12:47:18;;;;;;;;;;;27.80;52.30;;;;;;8455674;27;20847;-71
2023/06/13 12:51:28;;;;;;;;;;;27.90;52.30;;;;;;8464893;27;19931;-71
2023/06/13 12:55:29;;;;;;;;;;;27.90;52.50;;;;;;8467193;27;19951;-72
2023/06/13 12:59:36;;;;;;;;;;;27.90;52.50;;;;;;8472577;27;19934;-73
2023/06/13 13:03:38;;;;;;;;;;;27.90;52.00;;;;;;8451632;27;20440;-73
2023/06/13 13:07:40;;;;;;;;;;;28.00;52.00;;;;;;8462438;28;20407;-72
2023/06/13 13:11:41;;;;;;;;;;;28.00;52.10;;;;;;8466933;27;20021;-71
2023/06/13 13:15:43;;;;;;;;;;;28.00;52.20;;;;;;8463028;28;20578;-72
2023/06/13 13:19:46;;;;;;;;;;;28.10;52.30;;;;;;8463205;28;20375;-72
2023/06/13 13:23:48;;;;;;;;;;;28.10;51.70;;;;;;8458981;27;20334;-71
2023/06/13 13:27:50;;;;;;;;;;;28.10;51.80;;;;;;8464113;27;19931;-71
2023/06/13 13:31:52;;;;;;;;;;;28.10;51.70;;;;;;8458762;28;19923;-72
2023/06/13 13:35:54;;;;;;;;;;;28.10;51.70;;;;;;8484361;27;19928;-73
2023/06/13 13:39:56;;;;;;;;;;;28.10;51.60;;;;;;8453570;28;19924;-72
2023/06/13 13:44:01;;;;;;;;;;;28.10;51.80;;;;;;8460547;28;19978;-71
2023/06/13 13:48:02;;;;;;;;;;;28.10;51.30;;;;;;8452726;28;19924;-73
2023/06/13 13:52:04;;;;;;;;;;;28.10;51.40;;;;;;8457986;28;19932;-71
2023/06/13 13:56:06;;;;;;;;;;;28.20;51.60;;;;;;8450573;28;19951;-73
2023/06/13 14:00:08;;;;;;;;;;;28.20;51.10;;;;;;8457126;28;19923;-72
2023/06/13 14:04:13;;;;;;;;;;;28.30;51.30;;;;;;8452530;28;19934;-72
2023/06/13 14:08:15;;;;;;;;;;;28.30;51.50;;;;;;8457571;28;19924;-72
2023/06/13 14:12:16;;;;;;;;;;;28.30;51.40;;;;;;8463701;28;19928;-72
2023/06/13 14:16:21;;;;;;;;;;;28.30;51.10;;;;;;8464714;28;19971;-71
2023/06/13 14:20:22;;;;;;;;;;;28.40;51.40;;;;;;8454220;28;19945;-73
2023/06/13 14:24:24;;;;;;;;;;;28.40;51.10;;;;;;8464072;28;19924;-73
2023/06/13 14:28:26;;;;;;;;;;;28.50;50.90;;;;;;8375315;28;2235707;-73
2023/06/13 14:32:27;;;;;;;;;;;28.50;50.60;;;;;;8453702;27;19924;-75
2023/06/13 14:36:29;;;;;;;;;;;28.50;50.70;;;;;;8470072;27;19930;-71
2023/06/13 14:40:31;;;;;;;;;;;28.60;50.50;;;;;;8473081;27;19932;-72
2023/06/13 14:44:33;;;;;;;;;;;28.60;50.50;;;;;;8459652;27;19923;-73
2023/06/13 14:48:36;;;;;;;;;;;28.60;50.50;;;;;;8460831;27;19935;-73
2023/06/13 14:52:37;;;;;;;;;;;28.70;50.40;;;;;;8458047;27;19931;-72
2023/06/13 14:56:39;;;;;;;;;;;28.80;50.40;;;;;;8460676;27;19981;-73
2023/06/13 15:00:41;;;;;;;;;;;28.80;50.30;;;;;;8457432;27;19982;-72
2023/06/13 15:04:42;;;;;;;;;;;28.90;50.40;;;;;;8452816;27;19931;-73
2023/06/13 15:08:44;;;;;;;;;;;29.00;50.30;;;;;;8451718;28;20394;-73
2023/06/13 15:12:46;;;;;;;;;;;29.00;50.40;;;;;;8453983;27;19932;-74
2023/06/13 15:16:47;;;;;;;;;;;29.00;50.10;;;;;;8459267;28;20028;-73
2023/06/13 15:20:49;;;;;;;;;;;29.00;49.70;;;;;;8469312;27;20383;-73
2023/06/13 15:24:51;;;;;;;;;;;29.00;49.60;;;;;;8460425;27;20021;-73
2023/06/13 15:28:53;;;;;;;;;;;29.10;49.90;;;;;;8447484;28;19959;-71
2023/06/13 15:32:55;;;;;;;;;;;29.20;50.10;;;;;;8455645;27;19931;-72
2023/06/13 15:36:57;;;;;;;;;;;29.20;50.00;;;;;;8456892;28;20367;-72
2023/06/13 15:40:59;;;;;;;;;;;29.20;49.70;;;;;;8449338;27;19932;-74
2023/06/13 15:45:01;;;;;;;;;;;29.30;49.50;;;;;;8446406;27;19938;-74
2023/06/13 15:49:02;;;;;;;;;;;29.40;49.30;;;;;;8444933;27;19924;-73
2023/06/13 15:53:05;;;;;;;;;;;29.60;49.50;;;;;;8463849;27;20283;-74
2023/06/13 15:57:07;;;;;;;;;;;29.80;49.30;;;;;;8452746;28;19927;-73
2023/06/13 16:01:09;;;;;;;;;;;29.90;49.60;;;;;;8459371;28;19924;-74
2023/06/13 16:05:11;;;;;;;;;;;30.10;49.50;;;;;;8457674;28;19928;-73
2023/06/13 16:09:13;;;;;;;;;;;30.20;49.20;;;;;;8434055;28;19923;-73
2023/06/13 16:13:15;;;;;;;;;;;30.40;49.60;;;;;;8450912;28;19924;-73
2023/06/13 16:17:16;;;;;;;;;;;30.50;49.20;;;;;;8468828;27;20683;-74
2023/06/13 16:21:18;;;;;;;;;;;30.60;49.00;;;;;;8455023;28;19978;-73
2023/06/13 16:25:20;;;;;;;;;;;30.80;49.00;;;;;;8442292;28;19924;-73
2023/06/13 16:29:21;;;;;;;;;;;30.90;49.20;;;;;;8452742;28;19971;-74
2023/06/13 16:33:23;;;;;;;;;;;31.20;49.30;;;;;;8457127;28;19975;-74
2023/06/13 16:37:27;;;;;;;;;;;31.50;49.80;;;;;;8445263;28;19951;-74
2023/06/13 16:41:28;;;;;;;;;;;31.70;50.00;;;;;;8455535;28;20380;-74
2023/06/13 16:45:31;;;;;;;;;;;31.90;50.40;;;;;;8454398;28;20442;-73
2023/06/13 16:49:33;;;;;;;;;;;32.00;50.60;;;;;;8459997;28;19972;-74
2023/06/13 16:53:34;;;;;;;;;;;32.00;51.30;;;;;;8436777;28;20012;-74
2023/06/13 16:57:36;;;;;;;;;;;32.10;52.20;;;;;;8452201;27;19924;-73
2023/06/13 17:01:38;;;;;;;;;;;32.00;52.20;;;;;;8461430;27;19932;-74
2023/06/13 17:05:40;;;;;;;;;;;31.90;52.80;;;;;;8458031;27;19977;-75
2023/06/13 17:09:41;;;;;;;;;;;31.70;53.00;;;;;;8459732;27;19935;-74
2023/06/13 17:13:45;;;;;;;;;;;31.40;52.50;;;;;;8455991;27;19931;-73
2023/06/13 17:17:47;;;;;;;;;;;31.10;51.60;;;;;;8459371;27;19998;-74
2023/06/13 17:21:48;;;;;;;;;;;30.80;50.90;;;;;;8460947;27;19977;-74
2023/06/13 17:25:50;;;;;;;;;;;30.60;50.10;;;;;;8450453;27;19923;-74
2023/06/13 17:29:52;;;;;;;;;;;30.30;49.70;;;;;;8462153;27;19934;-74
2023/06/13 17:33:53;;;;;;;;;;;30.10;49.30;;;;;;8461321;28;19930;-74
2023/06/13 17:37:55;;;;;;;;;;;29.90;48.60;;;;;;8463808;27;19931;-74
2023/06/13 17:42:02;;;;;;;;;;;29.80;48.10;;;;;;8450574;27;19928;-72
2023/06/13 17:46:03;;;;;;;;;;;29.60;48.10;;;;;;8457647;27;19924;-73
2023/06/13 17:50:05;;;;;;;;;;;29.50;47.60;;;;;;8462000;27;20389;-74
2023/06/13 17:54:07;;;;;;;;;;;29.40;47.60;;;;;;8464030;27;19935;-73
2023/06/13 17:58:09;;;;;;;;;;;29.30;47.20;;;;;;8464730;27;19924;-75
2023/06/13 18:02:13;;;;;;;;;;;29.20;47.10;;;;;;8448795;28;19951;-74
2023/06/13 18:06:15;;;;;;;;;;;29.20;47.10;;;;;;8461873;27;20304;-74
2023/06/13 18:10:18;;;;;;;;;;;29.10;46.90;;;;;;8459096;27;19931;-74
2023/06/13 18:14:21;;;;;;;;;;;29.10;46.70;;;;;;8459142;27;19928;-73
2023/06/13 18:18:22;;;;;;;;;;;29.00;46.70;;;;;;8460276;27;19932;-73
2023/06/13 18:22:24;;;;;;;;;;;28.90;46.80;;;;;;8455990;27;19931;-73
2023/06/13 18:26:26;;;;;;;;;;;28.90;46.60;;;;;;8454151;27;19970;-74
2023/06/13 18:30:28;;;;;;;;;;;28.80;46.50;;;;;;8454813;27;19930;-73
2023/06/13 18:34:30;;;;;;;;;;;28.80;46.50;;;;;;8457602;27;19971;-74
2023/06/13 18:38:33;;;;;;;;;;;28.70;46.40;;;;;;8453341;27;19975;-73
2023/06/13 18:42:34;;;;;;;;;;;28.60;46.30;;;;;;8450453;27;19946;-73
2023/06/13 18:46:36;;;;;;;;;;;28.50;46.20;;;;;;8452229;27;19975;-74
2023/06/13 18:55:56;;;;;;;;;;;28.40;46.30;;;;;;8448011;27;19919;-73
2023/06/13 18:59:58;;;;;;;;;;;28.30;46.20;;;;;;8461183;27;19923;-74
2023/06/13 19:04:00;;;;;;;;;;;28.20;46.20;;;;;;8462688;28;20287;-74
2023/06/13 19:08:02;;;;;;;;;;;28.10;46.30;;;;;;8440390;28;20026;-73
2023/06/13 19:12:04;;;;;;;;;;;28.10;46.30;;;;;;8453866;27;19923;-74
2023/06/13 19:16:06;;;;;;;;;;;28.00;46.30;;;;;;8425932;28;19931;-73
2023/06/13 19:20:10;;;;;;;;;;;27.80;46.10;;;;;;8433486;28;20005;-74
2023/06/13 19:24:12;;;;;;;;;;;27.80;46.10;;;;;;8453364;27;19924;-74
2023/06/13 19:28:14;;;;;;;;;;;27.70;46.20;;;;;;8449199;28;20278;-73
2023/06/13 19:32:20;;;;;;;;;;;27.60;46.30;;;;;;8458942;27;19933;-73
2023/06/13 19:36:22;;;;;;;;;;;27.40;46.30;;;;;;8447346;27;19945;-73
2023/06/13 19:40:23;;;;;;;;;;;27.20;46.00;;;;;;8443522;27;19931;-72
2023/06/13 19:44:25;;;;;;;;;;;27.10;46.20;;;;;;8446321;28;19928;-74
2023/06/13 19:48:27;;;;;;;;;;;26.90;46.20;;;;;;8453383;28;19932;-72
2023/06/13 19:52:29;;;;;;;;;;;26.80;46.30;;;;;;8455552;28;19924;-73
2023/06/13 19:56:32;;;;;;;;;;;26.70;46.40;;;;;;8468533;27;20367;-73
2023/06/13 20:00:34;;;;;;;;;;;26.60;46.40;;;;;;8438863;28;19924;-74
2023/06/13 20:04:35;;;;;;;;;;;26.50;46.40;;;;;;8434634;28;20375;-73
2023/06/13 20:08:37;;;;;;;;;;;26.40;47.10;;;;;;8422909;28;20438;-73
2023/06/13 20:12:39;;;;;;;;;;;26.40;46.50;;;;;;8447469;28;19973;-72
2023/06/13 20:16:41;;;;;;;;;;;26.30;46.40;;;;;;8454484;28;19924;-72
2023/06/13 20:20:42;;;;;;;;;;;26.20;46.30;;;;;;8453651;28;19938;-73
2023/06/13 20:24:44;;;;;;;;;;;26.20;46.30;;;;;;8435688;28;19924;-72
2023/06/13 20:28:46;;;;;;;;;;;26.10;46.20;;;;;;8454004;28;19924;-73
2023/06/13 20:32:47;;;;;;;;;;;26.00;46.10;;;;;;8453651;28;19969;-72
2023/06/13 20:36:49;;;;;;;;;;;25.90;46.10;;;;;;8458806;28;19923;-73
2023/06/13 20:40:51;;;;;;;;;;;25.90;46.10;;;;;;8457443;28;20295;-74
2023/06/13 20:44:53;;;;;;;;;;;25.80;46.00;;;;;;8451804;28;19927;-72
2023/06/13 20:48:55;;;;;;;;;;;25.70;45.90;;;;;;8457572;28;19998;-73
2023/06/13 20:52:58;;;;;;;;;;;25.60;45.90;;;;;;8455784;28;19927;-73
2023/06/13 20:57:00;;;;;;;;;;;25.60;45.90;;;;;;8451860;28;20354;-73
2023/06/13 21:01:02;;;;;;;;;;;25.50;45.80;;;;;;8457121;27;19931;-73
2023/06/13 21:05:04;;;;;;;;;;;25.50;45.80;;;;;;8463358;28;19927;-73
2023/06/13 21:09:06;;;;;;;;;;;25.40;45.80;;;;;;8445299;28;20264;-72
2023/06/13 21:13:08;;;;;;;;;;;25.30;45.70;;;;;;8444520;28;19924;-72
2023/06/13 21:17:09;;;;;;;;;;;25.20;45.50;;;;;;8441759;28;19928;-72
2023/06/13 21:21:11;;;;;;;;;;;25.20;45.60;;;;;;8454555;28;19924;-72
2023/06/13 21:25:13;;;;;;;;;;;25.10;45.50;;;;;;8463109;28;19928;-72
2023/06/13 21:29:15;;;;;;;;;;;25.00;45.50;;;;;;8457889;28;19924;-73
2023/06/13 21:33:17;;;;;;;;;;;24.90;45.30;;;;;;8459094;28;19923;-72
2023/06/13 21:37:19;;;;;;;;;;;24.90;45.30;;;;;;8456522;27;19924;-73
2023/06/13 21:41:21;;;;;;;;;;;24.80;45.20;;;;;;8460286;27;19958;-72
2023/06/13 21:45:23;;;;;;;;;;;24.70;45.20;;;;;;8466127;27;19924;-73
2023/06/13 21:49:32;;;;;;;;;;;24.60;45.10;;;;;;8458387;28;19924;-73
2023/06/13 21:53:34;;;;;;;;;;;24.60;45.00;;;;;;8454986;27;19969;-73
2023/06/13 21:57:37;;;;;;;;;;;24.50;44.90;;;;;;8457887;28;19932;-73
2023/06/13 22:01:38;;;;;;;;;;;24.40;44.90;;;;;;8462020;28;19927;-72
2023/06/13 22:05:41;;;;;;;;;;;24.30;44.80;;;;;;8431068;28;19930;-73
2023/06/13 22:09:42;;;;;;;;;;;24.20;44.70;;;;;;8447705;27;19935;-73
2023/06/13 22:13:47;;;;;;;;;;;24.20;44.70;;;;;;8448573;28;19930;-73
2023/06/13 22:17:51;;;;;;;;;;;24.10;44.60;;;;;;8438000;28;19924;-72
2023/06/13 22:21:54;;;;;;;;;;;24.00;44.50;;;;;;8459029;28;19979;-72
2023/06/13 22:25:56;;;;;;;;;;;23.90;44.50;;;;;;8462369;28;19924;-73
2023/06/13 22:29:59;;;;;;;;;;;23.80;44.50;;;;;;8456237;28;19924;-72
2023/06/13 22:34:01;;;;;;;;;;;23.70;44.40;;;;;;8446974;28;20310;-73
2023/06/13 22:38:03;;;;;;;;;;;23.70;44.40;;;;;;8454505;28;19969;-72
2023/06/13 22:42:07;;;;;;;;;;;23.60;44.40;;;;;;8451037;28;19928;-72
2023/06/13 22:46:09;;;;;;;;;;;23.50;44.30;;;;;;8455936;28;19928;-72
2023/06/13 22:50:11;;;;;;;;;;;23.50;44.30;;;;;;8451779;28;19966;-73
2023/06/13 22:54:14;;;;;;;;;;;23.50;44.40;;;;;;8454582;27;19969;-72
2023/06/13 22:58:16;;;;;;;;;;;23.40;44.40;;;;;;8455204;28;19954;-72
2023/06/13 23:02:17;;;;;;;;;;;23.30;44.40;;;;;;8459852;27;19927;-72
2023/06/13 23:06:19;;;;;;;;;;;23.30;44.40;;;;;;8452359;27;19924;-73
2023/06/13 23:10:21;;;;;;;;;;;23.20;44.40;;;;;;8454515;27;19931;-72
2023/06/13 23:14:23;;;;;;;;;;;23.10;44.40;;;;;;8452903;28;20328;-71
2023/06/13 23:18:25;;;;;;;;;;;23.00;44.50;;;;;;8440181;28;19924;-72
2023/06/13 23:22:30;;;;;;;;;;;23.00;44.50;;;;;;8459251;28;19934;-72
2023/06/13 23:26:32;;;;;;;;;;;22.90;44.40;;;;;;8461538;28;19934;-72
2023/06/13 23:30:33;;;;;;;;;;;22.90;44.50;;;;;;8443570;28;19932;-72
2023/06/13 23:34:35;;;;;;;;;;;22.80;44.60;;;;;;8450450;28;20385;-73
2023/06/13 23:38:37;;;;;;;;;;;22.70;44.50;;;;;;8451123;28;20375;-72
2023/06/13 23:42:39;;;;;;;;;;;22.70;44.60;;;;;;8448778;28;19924;-71